createdAt,value
2019-03-04T00:00:30.549Z,53.10
2019-03-04T00:02:04.690Z,54.03
2019-03-04T00:03:38.402Z,49.93
2019-03-04T00:05:12.037Z,53.40
2019-03-04T00:06:45.663Z,56.77
2019-03-04T00:08:19.581Z,49.77
2019-03-04T00:09:53.793Z,49.83
2019-03-04T00:11:27.425Z,52.97
2019-03-04T00:13:01.047Z,56.73
2019-03-04T00:14:36.145Z,53.07
2019-03-04T00:16:09.762Z,59.90
2019-03-04T00:17:43.983Z,51.50
2019-03-04T00:19:17.675Z,55.17
2019-03-04T00:20:51.692Z,56.67
2019-03-04T00:22:25.351Z,57.43
2019-03-04T00:23:59.057Z,52.43
2019-03-04T00:25:32.955Z,54.77
2019-03-04T00:27:07.092Z,56.53
2019-03-04T00:28:40.706Z,52.87
2019-03-04T00:30:14.353Z,57.20
2019-03-04T00:31:47.978Z,50.70
2019-03-04T00:33:21.999Z,56.60
2019-03-04T00:34:55.610Z,56.67
2019-03-04T00:36:29.249Z,67.43
2019-03-04T00:38:04.046Z,66.53
2019-03-04T00:39:38.025Z,68.90
2019-03-04T00:41:11.743Z,57.47
2019-03-04T00:42:45.532Z,56.63
2019-03-04T00:44:19.258Z,58.60
2019-03-04T00:45:53.197Z,51.77
2019-03-04T00:47:26.996Z,50.97
2019-03-04T00:49:02.272Z,51.80
2019-03-04T00:50:35.909Z,52.47
2019-03-04T00:52:10.037Z,56.47
2019-03-04T00:53:43.717Z,55.00
2019-03-04T00:55:18.167Z,54.43
2019-03-04T00:56:52.314Z,59.97
2019-03-04T00:58:27.893Z,73.17
2019-03-04T01:00:01.600Z,71.70
2019-03-04T01:01:35.249Z,69.47
2019-03-04T01:03:09.478Z,75.43
2019-03-04T01:04:43.612Z,79.17
2019-03-04T01:06:18.261Z,59.17
2019-03-04T01:07:51.902Z,56.70
2019-03-04T01:09:27.711Z,55.80
2019-03-04T01:11:01.970Z,52.20
2019-03-04T01:12:36.111Z,57.67
2019-03-04T01:14:09.750Z,52.77
2019-03-04T01:15:43.400Z,49.80
2019-03-04T01:17:17.792Z,61.70
2019-03-04T01:18:51.481Z,53.20
2019-03-04T01:20:25.190Z,50.57
2019-03-04T01:21:58.888Z,50.20
2019-03-04T01:23:32.889Z,56.07
2019-03-04T01:25:09.584Z,52.63
2019-03-04T01:26:45.839Z,68.53
2019-03-04T01:28:19.862Z,52.23
2019-03-04T01:29:53.799Z,54.37
2019-03-04T01:31:27.451Z,56.70
2019-03-04T01:33:01.132Z,54.37
2019-03-04T01:34:34.760Z,52.43
2019-03-04T01:36:08.802Z,52.00
2019-03-04T01:37:42.535Z,56.60
2019-03-04T01:39:16.201Z,50.73
2019-03-04T01:40:49.836Z,56.57
2019-03-04T01:42:24.002Z,51.93
2019-03-04T01:43:57.991Z,52.17
2019-03-04T01:45:31.623Z,49.13
2019-03-04T01:47:05.351Z,54.47
2019-03-04T01:48:39.294Z,52.43
2019-03-04T01:50:17.230Z,55.20
2019-03-04T01:51:50.891Z,50.83
2019-03-04T01:53:24.612Z,49.47
2019-03-04T01:54:58.880Z,60.67
2019-03-04T01:56:32.622Z,72.37
2019-03-04T01:58:06.347Z,77.97
2019-03-04T01:59:40.197Z,67.80
2019-03-04T02:01:14.188Z,77.50
2019-03-04T02:02:48.045Z,73.87
2019-03-04T02:04:21.747Z,70.93
2019-03-04T02:05:55.398Z,65.70
2019-03-04T02:07:29.476Z,73.77
2019-03-04T02:09:03.361Z,67.87
2019-03-04T02:10:37.023Z,78.50
2019-03-04T02:12:10.690Z,81.47
2019-03-04T02:13:44.572Z,79.57
2019-03-04T02:15:20.154Z,64.17
2019-03-04T02:16:53.849Z,64.33
2019-03-04T02:18:27.445Z,59.33
2019-03-04T02:20:01.762Z,71.10
2019-03-04T02:21:36.287Z,58.63
2019-03-04T02:23:09.966Z,53.53
2019-03-04T02:24:43.668Z,58.30
2019-03-04T02:26:18.961Z,48.37
2019-03-04T02:27:55.917Z,55.03
2019-03-04T02:29:29.602Z,53.97
2019-03-04T02:31:03.264Z,50.07
2019-03-04T02:32:37.135Z,57.87
2019-03-04T02:34:10.767Z,52.30
2019-03-04T02:35:44.440Z,49.07
2019-03-04T02:37:18.178Z,49.70
2019-03-04T02:38:56.522Z,51.00
2019-03-04T02:40:30.221Z,51.30
2019-03-04T02:42:03.922Z,55.87
2019-03-04T02:43:37.615Z,61.67
2019-03-04T02:45:14.383Z,56.87
2019-03-04T02:46:48.407Z,57.77
2019-03-04T02:48:23.577Z,56.07
2019-03-04T02:49:57.179Z,56.50
2019-03-04T02:51:31.115Z,57.27
2019-03-04T02:53:04.862Z,61.77
2019-03-04T02:54:38.559Z,64.53
2019-03-04T02:56:12.202Z,56.03
2019-03-04T02:57:46.356Z,56.90
2019-03-04T02:59:20.178Z,59.83
2019-03-04T03:00:53.905Z,51.90
2019-03-04T03:02:27.598Z,55.47
2019-03-04T03:04:01.710Z,60.77
2019-03-04T03:05:35.498Z,47.47
2019-03-04T03:07:09.134Z,54.20
2019-03-04T03:08:42.765Z,57.07
2019-03-04T03:10:16.700Z,51.20
2019-03-04T03:11:50.467Z,53.80
2019-03-04T03:13:24.165Z,58.00
2019-03-04T03:14:57.902Z,67.20
2019-03-04T03:16:32.109Z,73.93
2019-03-04T03:18:06.466Z,79.93
2019-03-04T03:19:40.186Z,73.00
2019-03-04T03:21:13.820Z,63.27
2019-03-04T03:22:47.912Z,64.07
2019-03-04T03:24:21.669Z,60.93
2019-03-04T03:25:55.330Z,57.70
2019-03-04T03:27:28.994Z,61.57
2019-03-04T03:29:03.120Z,60.97
2019-03-04T03:30:36.858Z,56.13
2019-03-04T03:32:11.480Z,59.03
2019-03-04T03:33:45.158Z,56.77
2019-03-04T03:35:18.996Z,59.30
2019-03-04T03:36:52.652Z,67.53
2019-03-04T03:38:26.353Z,55.13
2019-03-04T03:40:00.105Z,56.77
2019-03-04T03:41:34.164Z,50.30
2019-03-04T03:43:07.814Z,49.53
2019-03-04T03:44:41.459Z,51.13
2019-03-04T03:46:15.236Z,57.50
2019-03-04T03:47:49.402Z,45.27
2019-03-04T03:49:23.136Z,55.70
2019-03-04T03:50:56.879Z,46.27
2019-03-04T03:52:30.562Z,49.90
2019-03-04T03:54:04.484Z,53.33
2019-03-04T03:55:38.203Z,50.70
2019-03-04T03:57:11.964Z,47.87
2019-03-04T03:58:45.596Z,50.20
2019-03-04T04:00:26.571Z,53.87
2019-03-04T04:02:00.331Z,50.53
2019-03-04T04:03:34.481Z,51.57
2019-03-04T04:05:08.507Z,57.97
2019-03-04T04:06:42.342Z,51.87
2019-03-04T04:08:16.038Z,49.67
2019-03-04T04:09:49.676Z,56.53
2019-03-04T04:11:23.373Z,56.33
2019-03-04T04:12:57.352Z,56.10
2019-03-04T04:14:31.038Z,60.40
2019-03-04T04:16:04.679Z,56.67
2019-03-04T04:17:38.317Z,55.47
2019-03-04T04:19:12.347Z,70.97
2019-03-04T04:20:46.057Z,69.03
2019-03-04T04:22:19.724Z,77.00
2019-03-04T04:23:53.362Z,74.90
2019-03-04T04:25:27.253Z,72.23
2019-03-04T04:27:01.001Z,66.40
2019-03-04T04:28:35.212Z,72.57
2019-03-04T04:30:12.196Z,65.03
2019-03-04T04:31:46.031Z,59.40
2019-03-04T04:33:19.760Z,59.50
2019-03-04T04:34:53.981Z,55.53
2019-03-04T04:36:27.730Z,56.53
2019-03-04T04:38:01.940Z,58.07
2019-03-04T04:39:37.214Z,57.20
2019-03-04T04:41:10.939Z,58.33
2019-03-04T04:42:44.653Z,49.80
2019-03-04T04:44:18.568Z,46.77
2019-03-04T04:45:52.201Z,45.43
2019-03-04T04:47:25.851Z,55.70
2019-03-04T04:48:59.619Z,47.60
2019-03-04T04:50:34.058Z,58.70
2019-03-04T04:52:07.735Z,52.07
2019-03-04T04:53:41.418Z,68.97
2019-03-04T04:55:15.042Z,73.20
2019-03-04T04:56:48.953Z,51.47
2019-03-04T04:58:22.570Z,50.60
2019-03-04T04:59:56.280Z,51.57
2019-03-04T05:01:29.931Z,54.67
2019-03-04T05:03:04.830Z,62.17
2019-03-04T05:04:38.604Z,59.87
2019-03-04T05:06:13.070Z,51.43
2019-03-04T05:07:46.945Z,73.77
2019-03-04T05:09:21.187Z,104.20
2019-03-04T05:10:54.909Z,142.53
2019-03-04T05:12:28.713Z,154.20
2019-03-04T05:14:02.445Z,143.77
2019-03-04T05:15:36.271Z,139.27
2019-03-04T05:17:09.991Z,138.13
2019-03-04T05:18:43.753Z,115.17
2019-03-04T05:20:22.531Z,136.40
2019-03-04T05:21:57.931Z,178.23
2019-03-04T05:23:31.569Z,170.77
2019-03-04T05:25:05.672Z,167.73
2019-03-04T05:26:39.322Z,149.87
2019-03-04T05:28:13.218Z,160.80
2019-03-04T05:29:48.536Z,177.80
2019-03-04T05:31:22.225Z,133.70
2019-03-04T05:32:55.866Z,124.83
2019-03-04T05:34:30.506Z,102.30
2019-03-04T05:36:04.212Z,110.27
2019-03-04T05:37:37.835Z,100.93
2019-03-04T05:39:11.555Z,101.30
2019-03-04T05:40:45.563Z,101.93
2019-03-04T05:42:19.309Z,101.57
2019-03-04T05:43:56.031Z,101.37
2019-03-04T05:45:29.743Z,95.60
2019-03-04T05:47:04.034Z,109.20
2019-03-04T05:48:37.699Z,108.00
2019-03-04T05:50:16.984Z,96.27
2019-03-04T05:51:50.621Z,97.67
2019-03-04T05:53:24.530Z,97.17
2019-03-04T05:54:58.206Z,95.97
2019-03-04T05:56:31.927Z,96.70
2019-03-04T05:58:05.602Z,89.83
2019-03-04T05:59:39.523Z,93.97
2019-03-04T06:01:18.924Z,72.43
2019-03-04T06:02:54.602Z,70.13
2019-03-04T06:04:28.263Z,73.13
2019-03-04T06:06:02.207Z,58.63
2019-03-04T06:07:37.500Z,65.47
2019-03-04T06:09:12.906Z,57.27
2019-03-04T06:10:46.639Z,62.13
2019-03-04T06:12:21.487Z,58.92
2019-03-04T06:13:55.188Z,72.50
2019-03-04T06:15:30.787Z,144.02
2019-03-04T06:17:04.394Z,91.43
2019-03-04T06:18:38.448Z,79.47
2019-03-04T06:20:14.817Z,88.17
2019-03-04T06:21:49.072Z,61.85
2019-03-04T06:23:23.324Z,49.60
2019-03-04T06:24:58.050Z,47.90
2019-03-04T06:26:32.354Z,45.03
2019-03-04T06:28:06.633Z,49.23
2019-03-04T06:29:40.955Z,54.93
2019-03-04T06:31:15.595Z,48.05
2019-03-04T06:32:49.796Z,44.35
2019-03-04T06:34:26.993Z,46.35
2019-03-04T06:36:01.214Z,44.63
2019-03-04T06:37:36.174Z,41.70
2019-03-04T06:39:10.391Z,42.25
2019-03-04T06:40:44.728Z,42.48
2019-03-04T06:42:18.973Z,41.58
2019-03-04T06:43:53.749Z,47.20
2019-03-04T06:45:28.026Z,41.35
2019-03-04T06:47:02.291Z,50.48
2019-03-04T06:48:36.511Z,51.58
2019-03-04T06:50:39.809Z,50.70
2019-03-04T06:52:14.105Z,53.50
2019-03-04T06:54:12.182Z,49.48
2019-03-04T06:56:11.878Z,50.78
2019-03-04T06:57:46.124Z,50.17
2019-03-04T06:59:26.246Z,61.18
2019-03-04T07:01:03.747Z,63.25
2019-03-04T07:02:46.207Z,96.53
2019-03-04T07:04:29.084Z,70.22
2019-03-04T07:06:04.837Z,53.48
2019-03-04T07:07:39.181Z,56.88
2019-03-04T07:09:14.399Z,59.13
2019-03-04T07:10:48.620Z,47.60
2019-03-04T07:12:22.845Z,55.85
2019-03-04T07:13:57.095Z,60.08
2019-03-04T07:15:31.772Z,75.15
2019-03-04T07:17:05.974Z,54.63
2019-03-04T07:18:40.205Z,48.63
2019-03-04T07:20:16.924Z,48.00
2019-03-04T07:21:51.354Z,44.27
2019-03-04T07:23:25.682Z,47.60
2019-03-04T07:24:59.979Z,45.80
2019-03-04T07:26:34.276Z,44.67
2019-03-04T07:28:08.625Z,38.65
2019-03-04T07:29:42.909Z,42.95
2019-03-04T07:31:17.208Z,49.58
2019-03-04T07:32:51.500Z,53.13
2019-03-04T07:34:26.159Z,47.00
2019-03-04T07:36:00.503Z,53.28
2019-03-04T07:37:34.498Z,45.80
2019-03-04T07:39:11.013Z,51.28
2019-03-04T07:40:46.263Z,52.85
2019-03-04T07:42:20.503Z,53.48
2019-03-04T07:43:54.735Z,55.75
2019-03-04T07:45:29.078Z,67.32
2019-03-04T07:47:03.711Z,71.17
2019-03-04T07:48:37.942Z,63.48
2019-03-04T07:50:12.542Z,54.77
2019-03-04T07:51:46.876Z,84.55
2019-03-04T07:53:21.452Z,91.10
2019-03-04T07:54:55.783Z,68.22
2019-03-04T07:56:30.379Z,76.25
2019-03-04T07:58:05.017Z,70.05
2019-03-04T07:59:39.355Z,46.33
2019-03-04T08:01:13.627Z,57.58
2019-03-04T08:02:47.983Z,59.98
2019-03-04T08:04:22.196Z,29.23
2019-03-04T08:05:57.761Z,48.98
2019-03-04T08:07:37.702Z,45.55
2019-03-04T08:09:14.922Z,51.20
2019-03-04T08:11:25.783Z,44.90
2019-03-04T08:13:03.168Z,45.63
2019-03-04T08:14:37.460Z,36.25
2019-03-04T08:16:12.426Z,32.05
2019-03-04T08:17:46.880Z,28.67
2019-03-04T08:19:21.092Z,29.48
2019-03-04T08:20:55.313Z,33.55
2019-03-04T08:22:29.552Z,27.87
2019-03-04T08:24:04.151Z,28.32
2019-03-04T08:25:38.383Z,28.67
2019-03-04T08:27:12.696Z,32.00
2019-03-04T08:28:46.891Z,52.00
2019-03-04T08:30:22.142Z,30.15
2019-03-04T08:31:56.391Z,46.75
2019-03-04T08:33:30.626Z,33.88
2019-03-04T08:35:05.248Z,23.30
2019-03-04T08:36:39.990Z,19.98
2019-03-04T08:38:14.243Z,20.35
2019-03-04T08:39:48.471Z,29.82
2019-03-04T08:41:22.756Z,20.43
2019-03-04T08:42:57.653Z,22.80
2019-03-04T08:44:31.996Z,17.48
2019-03-04T08:46:06.337Z,17.73
2019-03-04T08:47:40.655Z,20.50
2019-03-04T08:49:15.082Z,23.77
2019-03-04T08:50:49.439Z,22.62
2019-03-04T08:52:23.750Z,19.90
2019-03-04T08:53:57.997Z,20.75
2019-03-04T08:55:32.648Z,20.70
2019-03-04T08:57:06.925Z,19.73
2019-03-04T08:58:41.290Z,20.75
2019-03-04T09:00:21.310Z,18.05
2019-03-04T09:01:55.758Z,18.05
2019-03-04T09:03:30.028Z,21.02
2019-03-04T09:05:07.529Z,23.12
2019-03-04T09:06:41.841Z,27.05
2019-03-04T09:08:16.401Z,24.25
2019-03-04T09:09:51.203Z,26.35
2019-03-04T09:11:25.428Z,25.15
2019-03-04T09:12:59.757Z,23.15
2019-03-04T09:14:34.243Z,22.60
2019-03-04T09:16:08.833Z,23.65
2019-03-04T09:17:43.194Z,19.40
2019-03-04T09:19:17.411Z,21.57
2019-03-04T09:20:52.056Z,22.15
2019-03-04T09:22:26.274Z,24.45
2019-03-04T09:24:00.498Z,24.92
2019-03-04T09:25:37.655Z,21.17
2019-03-04T09:27:12.360Z,24.27
2019-03-04T09:28:48.071Z,29.55
2019-03-04T09:30:22.976Z,30.60
2019-03-04T09:31:57.463Z,27.98
2019-03-04T09:33:31.981Z,30.10
2019-03-04T09:35:10.355Z,26.70
2019-03-04T09:36:44.599Z,21.90
2019-03-04T09:38:18.864Z,24.57
2019-03-04T09:39:53.507Z,20.37
2019-03-04T09:41:27.905Z,20.23
2019-03-04T09:43:02.900Z,27.93
2019-03-04T09:44:37.112Z,26.80
2019-03-04T09:46:11.634Z,24.37
2019-03-04T09:47:46.502Z,31.45
2019-03-04T09:49:20.838Z,23.22
2019-03-04T09:50:55.369Z,22.07
2019-03-04T09:52:29.802Z,21.85
2019-03-04T09:54:04.138Z,21.80
2019-03-04T09:55:38.506Z,16.48
2019-03-04T09:57:12.766Z,15.78
2019-03-04T09:58:47.275Z,13.20
2019-03-04T10:00:38.857Z,12.45
2019-03-04T10:02:13.624Z,12.50
2019-03-04T10:03:53.772Z,12.68
2019-03-04T10:05:47.419Z,13.22
2019-03-04T10:07:28.007Z,18.75
2019-03-04T10:09:23.626Z,15.38
2019-03-04T10:11:12.875Z,11.80
2019-03-04T10:13:07.921Z,17.77
2019-03-04T10:14:56.925Z,12.37
2019-03-04T10:16:55.150Z,15.23
2019-03-04T10:18:44.050Z,11.38
2019-03-04T10:20:33.307Z,11.03
2019-03-04T10:22:19.387Z,10.53
2019-03-04T10:24:03.681Z,7.83
2019-03-04T10:25:57.606Z,9.20
2019-03-04T10:27:46.621Z,8.83
2019-03-04T10:29:44.059Z,10.20
2019-03-04T10:31:24.390Z,11.90
2019-03-04T10:33:24.137Z,14.93
2019-03-04T10:35:15.773Z,11.57
2019-03-04T10:37:02.194Z,10.38
2019-03-04T10:38:57.219Z,10.55
2019-03-04T10:40:39.985Z,5.40
2019-03-04T10:42:35.393Z,5.20
2019-03-04T10:44:21.254Z,9.15
2019-03-04T10:46:28.796Z,5.62
2019-03-04T10:48:03.694Z,13.93
2019-03-04T10:49:37.909Z,8.18
2019-03-04T10:51:12.479Z,8.15
2019-03-04T10:52:46.823Z,8.80
2019-03-04T10:54:21.458Z,7.17
2019-03-04T10:55:55.675Z,7.78
2019-03-04T10:57:29.972Z,5.62
2019-03-04T10:59:04.207Z,5.08
2019-03-04T11:00:38.899Z,7.42
2019-03-04T11:02:13.135Z,10.00
2019-03-04T11:03:47.336Z,6.28
2019-03-04T11:05:21.554Z,4.25
2019-03-04T11:06:56.566Z,5.33
2019-03-04T11:08:30.779Z,2.27
2019-03-04T11:10:07.938Z,4.37
2019-03-04T11:11:44.698Z,5.78
2019-03-04T11:13:19.531Z,3.08
2019-03-04T11:14:55.429Z,3.72
2019-03-04T11:16:29.649Z,5.05
2019-03-04T11:18:03.954Z,3.22
2019-03-04T11:19:38.395Z,14.03
2019-03-04T11:21:12.668Z,5.17
2019-03-04T11:22:47.423Z,7.20
2019-03-04T11:24:21.703Z,5.15
2019-03-04T11:25:56.270Z,5.72
2019-03-04T11:27:31.954Z,8.20
2019-03-04T11:29:06.385Z,3.33
2019-03-04T11:30:41.019Z,5.22
2019-03-04T11:32:15.764Z,8.88
2019-03-04T11:33:50.040Z,7.75
2019-03-04T11:35:24.320Z,3.83
2019-03-04T11:37:00.020Z,4.60
2019-03-04T11:38:40.393Z,4.33
2019-03-04T11:40:31.128Z,6.53
2019-03-04T11:42:05.362Z,7.72
2019-03-04T11:43:40.637Z,4.22
2019-03-04T11:45:17.597Z,7.28
2019-03-04T11:46:51.863Z,6.80
2019-03-04T11:48:26.067Z,7.87
2019-03-04T11:50:00.299Z,8.33
2019-03-04T11:51:34.848Z,4.80
2019-03-04T11:53:09.095Z,11.03
2019-03-04T11:54:44.795Z,8.83
2019-03-04T11:56:19.090Z,6.65
2019-03-04T11:57:53.922Z,8.03
2019-03-04T11:59:28.206Z,12.53
2019-03-04T12:01:12.917Z,8.70
2019-03-04T12:02:47.210Z,9.30
2019-03-04T12:04:21.822Z,14.90
2019-03-04T12:05:56.106Z,9.95
2019-03-04T12:07:30.416Z,6.20
2019-03-04T12:09:07.636Z,5.42
2019-03-04T12:10:42.542Z,6.10
2019-03-04T12:12:16.901Z,7.05
2019-03-04T12:13:51.105Z,8.20
2019-03-04T12:15:25.399Z,7.83
2019-03-04T12:17:00.194Z,8.15
2019-03-04T12:18:34.575Z,8.00
2019-03-04T12:20:11.589Z,7.20
2019-03-04T12:21:47.826Z,16.27
2019-03-04T12:23:25.185Z,12.95
2019-03-04T12:24:59.403Z,8.75
2019-03-04T12:26:33.599Z,10.68
2019-03-04T12:28:07.810Z,5.87
2019-03-04T12:29:42.567Z,6.67
2019-03-04T12:31:16.854Z,6.65
2019-03-04T12:32:52.450Z,9.48
2019-03-04T12:34:26.879Z,11.78
2019-03-04T12:36:01.656Z,7.05
2019-03-04T12:37:35.862Z,5.97
2019-03-04T12:39:11.771Z,10.18
2019-03-04T12:40:46.039Z,70.67
2019-03-04T12:42:20.460Z,12.80
2019-03-04T12:43:54.659Z,7.50
2019-03-04T12:45:34.356Z,4.85
2019-03-04T12:47:04.987Z,15.48
2019-03-04T12:48:39.427Z,11.30
2019-03-04T12:50:33.325Z,18.82
2019-03-04T12:52:07.658Z,8.53
2019-03-04T12:53:42.222Z,8.85
2019-03-04T12:55:16.519Z,5.75
2019-03-04T12:56:50.736Z,5.92
2019-03-04T12:58:25.005Z,7.65
2019-03-04T12:59:59.663Z,11.60
2019-03-04T13:01:33.966Z,22.15
2019-03-04T13:03:09.814Z,12.20
2019-03-04T13:04:44.109Z,9.15
2019-03-04T13:06:18.755Z,6.50
2019-03-04T13:07:53.053Z,8.85
2019-03-04T13:09:27.344Z,6.87
2019-03-04T13:11:01.597Z,29.60
2019-03-04T13:12:36.718Z,23.98
2019-03-04T13:14:10.937Z,14.20
2019-03-04T13:15:45.672Z,6.30
2019-03-04T13:17:19.928Z,6.37
2019-03-04T13:18:54.557Z,4.12
2019-03-04T13:20:30.381Z,5.83
2019-03-04T13:22:08.435Z,3.55
2019-03-04T13:23:40.496Z,5.05
2019-03-04T13:25:15.800Z,8.88
2019-03-04T13:26:50.037Z,14.20
2019-03-04T13:28:24.222Z,8.55
2019-03-04T13:29:58.495Z,5.95
2019-03-04T13:31:32.993Z,7.10
2019-03-04T13:33:07.189Z,6.30
2019-03-04T13:34:41.470Z,10.65
2019-03-04T13:36:15.778Z,9.35
2019-03-04T13:37:50.823Z,6.90
2019-03-04T13:39:25.112Z,9.95
2019-03-04T13:40:59.396Z,9.40
2019-03-04T13:42:33.729Z,7.50
2019-03-04T13:44:09.368Z,4.20
2019-03-04T13:45:43.659Z,9.03
2019-03-04T13:47:19.915Z,5.92
2019-03-04T13:48:55.664Z,3.40
2019-03-04T13:50:35.129Z,5.08
2019-03-04T13:52:09.923Z,6.20
2019-03-04T13:53:44.335Z,4.05
2019-03-04T13:55:19.980Z,4.10
2019-03-04T13:56:54.608Z,4.28
2019-03-04T13:58:29.203Z,6.97
2019-03-04T14:00:04.986Z,7.65
2019-03-04T14:01:39.214Z,14.78
2019-03-04T14:03:14.875Z,17.92
2019-03-04T14:04:49.142Z,17.90
2019-03-04T14:06:23.352Z,14.68
2019-03-04T14:07:57.592Z,13.03
2019-03-04T14:09:32.185Z,18.12
2019-03-04T14:11:06.449Z,11.48
2019-03-04T14:12:40.656Z,16.23
2019-03-04T14:14:15.344Z,8.00
2019-03-04T14:15:58.036Z,12.80
2019-03-04T14:17:32.316Z,8.85
2019-03-04T14:19:06.598Z,8.18
2019-03-04T14:20:40.904Z,9.70
2019-03-04T14:22:15.470Z,27.75
2019-03-04T14:23:49.716Z,21.10
2019-03-04T14:25:24.017Z,18.23
2019-03-04T14:26:58.265Z,16.35
2019-03-04T14:28:32.813Z,22.37
2019-03-04T14:30:12.603Z,11.10
2019-03-04T14:31:46.811Z,10.00
2019-03-04T14:33:21.095Z,8.83
2019-03-04T14:34:55.898Z,6.33
2019-03-04T14:36:30.100Z,7.72
2019-03-04T14:38:04.304Z,9.98
2019-03-04T14:39:38.649Z,10.98
2019-03-04T14:41:13.373Z,13.93
2019-03-04T14:42:47.666Z,7.15
2019-03-04T14:44:24.995Z,12.60
2019-03-04T14:46:00.778Z,12.50
2019-03-04T14:47:35.497Z,8.60
2019-03-04T14:49:09.811Z,20.25
2019-03-04T14:50:44.107Z,16.82
2019-03-04T14:52:18.397Z,11.93
2019-03-04T14:53:52.877Z,11.10
2019-03-04T14:55:32.130Z,14.83
2019-03-04T14:57:06.448Z,11.68
2019-03-04T14:58:40.662Z,8.85
2019-03-04T15:00:30.802Z,6.47
2019-03-04T15:02:05.030Z,7.70
2019-03-04T15:03:39.361Z,11.20
2019-03-04T15:05:14.480Z,15.93
2019-03-04T15:06:49.354Z,21.60
2019-03-04T15:08:23.630Z,23.10
2019-03-04T15:09:57.889Z,23.85
2019-03-04T15:11:32.190Z,17.65
2019-03-04T15:13:06.909Z,21.95
2019-03-04T15:14:43.331Z,23.83
2019-03-04T15:16:17.194Z,69.03
2019-03-04T15:17:51.490Z,60.78
2019-03-04T15:19:25.895Z,82.57
2019-03-04T15:21:00.226Z,73.85
2019-03-04T15:22:35.358Z,96.02
2019-03-04T15:24:09.978Z,224.02
2019-03-04T15:25:45.495Z,162.40
2019-03-04T15:27:19.775Z,120.15
2019-03-04T15:28:54.112Z,77.90
2019-03-04T15:30:28.411Z,91.60
2019-03-04T15:32:02.943Z,50.40
2019-03-04T15:33:37.164Z,41.70
2019-03-04T15:35:11.401Z,45.15
2019-03-04T15:36:45.623Z,40.30
2019-03-04T15:38:21.001Z,38.30
2019-03-04T15:39:55.202Z,25.27
2019-03-04T15:41:29.460Z,27.37
2019-03-04T15:43:03.716Z,30.05
2019-03-04T15:44:39.070Z,37.40
2019-03-04T15:46:13.401Z,30.97
2019-03-04T15:47:47.788Z,45.70
2019-03-04T15:49:22.099Z,61.60
2019-03-04T15:50:56.666Z,47.08
2019-03-04T15:52:30.911Z,41.18
2019-03-04T15:54:05.212Z,38.53
2019-03-04T15:55:39.558Z,40.65
2019-03-04T15:57:14.171Z,35.55
2019-03-04T15:58:48.493Z,48.55
2019-03-04T16:00:22.918Z,37.15
2019-03-04T16:02:00.133Z,47.93
2019-03-04T16:03:36.786Z,47.13
2019-03-04T16:05:13.667Z,94.22
2019-03-04T16:06:47.979Z,92.40
2019-03-04T16:08:22.340Z,99.13
2019-03-04T16:09:58.434Z,79.07
2019-03-04T16:11:32.934Z,72.97
2019-03-04T16:13:08.573Z,100.15
2019-03-04T16:14:42.950Z,114.72
2019-03-04T16:16:17.680Z,89.00
2019-03-04T16:17:53.536Z,108.57
2019-03-04T16:19:27.943Z,92.27
2019-03-04T16:21:02.178Z,92.20
2019-03-04T16:22:37.232Z,81.40
2019-03-04T16:24:11.567Z,74.82
2019-03-04T16:25:45.810Z,45.33
2019-03-04T16:27:20.145Z,87.97
2019-03-04T16:28:54.926Z,116.15
2019-03-04T16:30:29.229Z,86.40
2019-03-04T16:32:03.505Z,98.92
2019-03-04T16:33:39.410Z,81.60
2019-03-04T16:35:14.214Z,74.15
2019-03-04T16:36:48.544Z,110.30
2019-03-04T16:38:22.916Z,81.37
2019-03-04T16:39:57.128Z,115.50
2019-03-04T16:41:32.212Z,104.12
2019-03-04T16:43:07.844Z,90.25
2019-03-04T16:44:42.160Z,106.37
2019-03-04T16:46:17.337Z,95.57
2019-03-04T16:47:51.783Z,161.28
2019-03-04T16:49:26.704Z,167.28
2019-03-04T16:51:00.934Z,174.18
2019-03-04T16:52:35.231Z,150.95
2019-03-04T16:54:10.051Z,172.90
2019-03-04T16:55:45.039Z,200.78
2019-03-04T16:57:19.354Z,202.60
2019-03-04T16:58:53.619Z,150.90
2019-03-04T17:00:31.180Z,82.67
2019-03-04T17:02:05.621Z,75.67
2019-03-04T17:03:39.849Z,64.37
2019-03-04T17:05:16.592Z,112.97
2019-03-04T17:06:51.188Z,39.20
2019-03-04T17:08:26.487Z,46.08
2019-03-04T17:10:00.786Z,41.50
2019-03-04T17:11:35.097Z,54.05
2019-03-04T17:13:09.858Z,58.50
2019-03-04T17:14:44.137Z,80.53
2019-03-04T17:16:18.428Z,81.22
2019-03-04T17:17:55.278Z,80.05
2019-03-04T17:19:29.770Z,99.05
2019-03-04T17:21:04.565Z,96.97
2019-03-04T17:22:38.906Z,89.72
2019-03-04T17:24:12.621Z,96.57
2019-03-04T17:25:49.245Z,426.05
2019-03-04T17:27:25.380Z,156.70
2019-03-04T17:29:02.439Z,95.80
2019-03-04T17:30:37.832Z,139.10
2019-03-04T17:32:12.349Z,82.97
2019-03-04T17:33:46.663Z,127.40
2019-03-04T17:35:22.362Z,118.33
2019-03-04T17:36:56.064Z,132.50
2019-03-04T17:38:30.515Z,117.77
2019-03-04T17:40:06.901Z,144.75
2019-03-04T17:41:41.121Z,137.20
2019-03-04T17:43:15.373Z,120.70
2019-03-04T17:44:49.926Z,126.70
2019-03-04T17:46:24.210Z,101.87
2019-03-04T17:48:00.757Z,110.48
2019-03-04T17:49:35.324Z,109.10
2019-03-04T17:51:10.016Z,68.10
2019-03-04T17:52:44.255Z,57.73
2019-03-04T17:54:18.490Z,133.60
2019-03-04T17:55:52.119Z,144.80
2019-03-04T17:57:26.434Z,156.77
2019-03-04T17:59:00.742Z,136.20
2019-03-04T18:00:37.729Z,96.83
2019-03-04T18:02:11.997Z,63.92
2019-03-04T18:03:45.935Z,90.37
2019-03-04T18:05:20.218Z,131.20
2019-03-04T18:06:54.534Z,92.47
2019-03-04T18:08:28.949Z,72.35
2019-03-04T18:10:03.529Z,88.70
2019-03-04T18:11:37.848Z,67.45
2019-03-04T18:13:14.713Z,90.03
2019-03-04T18:14:49.012Z,84.97
2019-03-04T18:16:23.609Z,93.03
2019-03-04T18:17:57.297Z,89.83
2019-03-04T18:19:31.052Z,66.30
2019-03-04T18:21:06.334Z,77.57
2019-03-04T18:22:40.936Z,57.90
2019-03-04T18:24:16.182Z,56.68
2019-03-04T18:25:59.341Z,61.25
2019-03-04T18:27:33.645Z,95.22
2019-03-04T18:29:16.587Z,83.20
2019-03-04T18:31:10.146Z,117.82
2019-03-04T18:33:08.165Z,157.72
2019-03-04T18:35:00.986Z,169.80
2019-03-04T18:36:40.491Z,173.27
2019-03-04T18:38:38.186Z,215.07
2019-03-04T18:40:33.704Z,203.55
2019-03-04T18:42:32.582Z,193.20
2019-03-04T18:44:31.811Z,176.03
2019-03-04T18:46:31.511Z,162.53
2019-03-04T18:48:10.838Z,160.83
2019-03-04T18:49:44.701Z,176.00
2019-03-04T18:51:18.414Z,147.83
2019-03-04T18:52:54.277Z,53.80
2019-03-04T18:54:30.205Z,56.42
2019-03-04T18:56:04.429Z,57.80
2019-03-04T18:57:38.129Z,45.70
2019-03-04T18:59:12.110Z,35.97
2019-03-04T19:00:45.727Z,38.97
2019-03-04T19:02:19.490Z,49.27
2019-03-04T19:03:53.256Z,43.20
2019-03-04T19:05:27.337Z,47.47
2019-03-04T19:07:00.982Z,73.43
2019-03-04T19:08:34.689Z,102.80
2019-03-04T19:10:11.112Z,49.40
2019-03-04T19:11:45.154Z,44.70
2019-03-04T19:13:18.782Z,53.67
2019-03-04T19:14:52.475Z,37.30
2019-03-04T19:16:26.125Z,38.50
2019-03-04T19:17:59.979Z,34.97
2019-03-04T19:19:33.686Z,32.90
2019-03-04T19:21:07.452Z,35.70
2019-03-04T19:22:41.154Z,39.27
2019-03-04T19:24:14.962Z,53.77
2019-03-04T19:25:49.892Z,51.90
2019-03-04T19:27:23.575Z,48.83
2019-03-04T19:28:58.516Z,45.30
2019-03-04T19:30:32.446Z,47.90
2019-03-04T19:32:06.851Z,38.92
2019-03-04T19:33:42.041Z,66.20
2019-03-04T19:35:16.263Z,66.70
2019-03-04T19:36:51.524Z,69.07
2019-03-04T19:38:25.689Z,76.53
2019-03-04T19:39:59.430Z,56.03
2019-03-04T19:41:33.239Z,70.43
2019-03-04T19:43:07.674Z,92.70
2019-03-04T19:44:41.359Z,98.37
2019-03-04T19:46:15.011Z,153.03
2019-03-04T19:47:49.515Z,120.22
2019-03-04T19:49:24.430Z,113.60
2019-03-04T19:50:58.722Z,100.07
2019-03-04T19:52:32.422Z,71.60
2019-03-04T19:54:06.201Z,80.23
2019-03-04T19:55:40.136Z,70.13
2019-03-04T19:57:17.605Z,60.23
2019-03-04T19:58:51.875Z,41.83
2019-03-04T20:00:27.461Z,33.63
2019-03-04T20:02:02.220Z,33.07
2019-03-04T20:03:36.636Z,34.90
2019-03-04T20:05:11.122Z,30.33
2019-03-04T20:06:44.768Z,30.93
2019-03-04T20:08:20.751Z,31.73
2019-03-04T20:09:56.400Z,36.57
2019-03-04T20:11:29.834Z,26.27
2019-03-04T20:13:04.238Z,23.97
2019-03-04T20:14:38.225Z,28.57
2019-03-04T20:16:13.215Z,29.03
2019-03-04T20:17:47.000Z,21.43
2019-03-04T20:19:20.648Z,24.97
2019-03-04T20:20:54.460Z,23.03
2019-03-04T20:22:28.192Z,60.00
2019-03-04T20:24:01.874Z,88.50
2019-03-04T20:25:35.593Z,126.23
2019-03-04T20:27:09.424Z,118.07
2019-03-04T20:28:43.175Z,136.90
2019-03-04T20:30:21.956Z,131.37
2019-03-04T20:31:55.726Z,99.57